sensor_id;sensor_type;location;lat;lon;timestamp;temperature;humidity
2577;DHT22;1298;51.252;6.802;2023-04-24T00:02:19;11.80;99.90
2577;DHT22;1298;51.252;6.802;2023-04-24T00:05:06;11.80;99.90
2577;DHT22;1298;51.252;6.802;2023-04-24T00:07:54;11.70;99.90
2577;DHT22;1298;51.252;6.802;2023-04-24T00:10:39;11.70;99.90
2577;DHT22;1298;51.252;6.802;2023-04-24T00:13:24;11.70;99.90
2577;DHT22;1298;51.252;6.802;2023-04-24T00:16:12;11.60;99.90
2577;DHT22;1298;51.252;6.802;2023-04-24T00:18:57;11.60;99.90
2577;DHT22;1298;51.252;6.802;2023-04-24T00:21:44;11.50;99.90
2577;DHT22;1298;51.252;6.802;2023-04-24T00:24:31;11.40;99.90
2577;DHT22;1298;51.252;6.802;2023-04-24T00:27:16;11.40;99.90
2577;DHT22;1298;51.252;6.802;2023-04-24T00:30:01;11.30;99.90
2577;DHT22;1298;51.252;6.802;2023-04-24T00:32:47;11.20;99.90
2577;DHT22;1298;51.252;6.802;2023-04-24T00:35:32;11.20;99.90
2577;DHT22;1298;51.252;6.802;2023-04-24T00:38:18;11.20;99.90
2577;DHT22;1298;51.252;6.802;2023-04-24T00:41:04;11.10;99.90
2577;DHT22;1298;51.252;6.802;2023-04-24T00:43:50;11.10;99.90
2577;DHT22;1298;51.252;6.802;2023-04-24T00:46:35;11.10;99.90
2577;DHT22;1298;51.252;6.802;2023-04-24T00:49:21;11.10;99.90
2577;DHT22;1298;51.252;6.802;2023-04-24T00:52:06;11.10;99.90
2577;DHT22;1298;51.252;6.802;2023-04-24T00:54:53;11.10;99.90
2577;DHT22;1298;51.252;6.802;2023-04-24T00:57:40;11.20;99.90
2577;DHT22;1298;51.252;6.802;2023-04-24T01:00:25;11.10;99.90
2577;DHT22;1298;51.252;6.802;2023-04-24T01:03:11;11.10;99.90
2577;DHT22;1298;51.252;6.802;2023-04-24T01:05:57;11.00;99.90
2577;DHT22;1298;51.252;6.802;2023-04-24T01:08:43;11.00;99.90
2577;DHT22;1298;51.252;6.802;2023-04-24T01:11:28;11.00;99.90
2577;DHT22;1298;51.252;6.802;2023-04-24T01:14:15;10.90;99.90
2577;DHT22;1298;51.252;6.802;2023-04-24T01:17:00;10.90;99.90
2577;DHT22;1298;51.252;6.802;2023-04-24T01:19:46;10.80;99.90
2577;DHT22;1298;51.252;6.802;2023-04-24T01:22:33;10.70;99.90
2577;DHT22;1298;51.252;6.802;2023-04-24T01:25:19;10.60;99.90
2577;DHT22;1298;51.252;6.802;2023-04-24T01:28:04;10.50;99.90
2577;DHT22;1298;51.252;6.802;2023-04-24T01:30:50;10.40;99.90
2577;DHT22;1298;51.252;6.802;2023-04-24T01:33:45;10.30;99.90
2577;DHT22;1298;51.252;6.802;2023-04-24T01:37:09;10.10;99.90
2577;DHT22;1298;51.252;6.802;2023-04-24T01:40:19;9.90;99.90
2577;DHT22;1298;51.252;6.802;2023-04-24T01:43:27;9.80;99.90
2577;DHT22;1298;51.252;6.802;2023-04-24T01:46:18;9.80;99.90
2577;DHT22;1298;51.252;6.802;2023-04-24T01:49:16;9.80;99.90
2577;DHT22;1298;51.252;6.802;2023-04-24T01:52:33;9.70;99.90
2577;DHT22;1298;51.252;6.802;2023-04-24T01:55:58;9.70;99.90
2577;DHT22;1298;51.252;6.802;2023-04-24T01:58:54;9.70;99.90
2577;DHT22;1298;51.252;6.802;2023-04-24T02:01:59;9.80;99.90
2577;DHT22;1298;51.252;6.802;2023-04-24T02:04:57;9.80;99.90
2577;DHT22;1298;51.252;6.802;2023-04-24T02:07:58;9.80;99.90
2577;DHT22;1298;51.252;6.802;2023-04-24T02:11:33;9.80;99.90
2577;DHT22;1298;51.252;6.802;2023-04-24T02:14:35;9.80;99.90
2577;DHT22;1298;51.252;6.802;2023-04-24T02:17:26;9.90;99.90
2577;DHT22;1298;51.252;6.802;2023-04-24T02:20:30;9.90;99.90
2577;DHT22;1298;51.252;6.802;2023-04-24T02:23:38;9.90;99.90
2577;DHT22;1298;51.252;6.802;2023-04-24T02:26:48;9.90;99.90
2577;DHT22;1298;51.252;6.802;2023-04-24T02:29:35;9.90;99.90
2577;DHT22;1298;51.252;6.802;2023-04-24T02:32:29;9.90;99.90
2577;DHT22;1298;51.252;6.802;2023-04-24T02:35:19;9.90;99.90
2577;DHT22;1298;51.252;6.802;2023-04-24T02:38:05;9.90;99.90
2577;DHT22;1298;51.252;6.802;2023-04-24T02:40:52;10.00;99.90
2577;DHT22;1298;51.252;6.802;2023-04-24T02:43:46;10.00;99.90
2577;DHT22;1298;51.252;6.802;2023-04-24T02:46:35;10.00;99.90
2577;DHT22;1298;51.252;6.802;2023-04-24T02:49:25;10.00;99.90
2577;DHT22;1298;51.252;6.802;2023-04-24T02:53:21;10.10;99.90
2577;DHT22;1298;51.252;6.802;2023-04-24T02:56:28;10.10;99.90
2577;DHT22;1298;51.252;6.802;2023-04-24T02:59:16;10.10;99.90
2577;DHT22;1298;51.252;6.802;2023-04-24T03:02:07;10.10;99.90
2577;DHT22;1298;51.252;6.802;2023-04-24T03:04:52;10.10;99.90
2577;DHT22;1298;51.252;6.802;2023-04-24T03:07:41;10.10;99.90
2577;DHT22;1298;51.252;6.802;2023-04-24T03:10:41;10.00;99.90
2577;DHT22;1298;51.252;6.802;2023-04-24T03:13:32;10.10;99.90
2577;DHT22;1298;51.252;6.802;2023-04-24T03:16:24;10.10;99.90
2577;DHT22;1298;51.252;6.802;2023-04-24T03:19:13;10.10;99.90
2577;DHT22;1298;51.252;6.802;2023-04-24T03:22:04;10.20;99.90
2577;DHT22;1298;51.252;6.802;2023-04-24T03:24:49;10.20;99.90
2577;DHT22;1298;51.252;6.802;2023-04-24T03:27:36;10.20;99.90
2577;DHT22;1298;51.252;6.802;2023-04-24T03:30:25;10.10;99.90
2577;DHT22;1298;51.252;6.802;2023-04-24T03:33:20;10.20;99.90
2577;DHT22;1298;51.252;6.802;2023-04-24T03:36:19;10.10;99.90
2577;DHT22;1298;51.252;6.802;2023-04-24T03:39:06;10.10;99.90
2577;DHT22;1298;51.252;6.802;2023-04-24T03:42:00;10.10;99.90
2577;DHT22;1298;51.252;6.802;2023-04-24T03:45:04;10.10;99.90
2577;DHT22;1298;51.252;6.802;2023-04-24T03:48:53;10.10;99.90
2577;DHT22;1298;51.252;6.802;2023-04-24T03:51:41;10.10;99.90
2577;DHT22;1298;51.252;6.802;2023-04-24T03:54:56;10.10;99.90
2577;DHT22;1298;51.252;6.802;2023-04-24T03:57:46;10.20;99.90
2577;DHT22;1298;51.252;6.802;2023-04-24T04:01:04;10.20;99.90
2577;DHT22;1298;51.252;6.802;2023-04-24T04:04:11;10.20;99.90
2577;DHT22;1298;51.252;6.802;2023-04-24T04:07:17;10.20;99.90
2577;DHT22;1298;51.252;6.802;2023-04-24T04:11:21;10.10;99.90
2577;DHT22;1298;51.252;6.802;2023-04-24T04:14:17;10.10;99.90
2577;DHT22;1298;51.252;6.802;2023-04-24T04:17:18;10.10;99.90
2577;DHT22;1298;51.252;6.802;2023-04-24T04:20:09;10.20;99.90
2577;DHT22;1298;51.252;6.802;2023-04-24T04:23:46;10.20;99.90
2577;DHT22;1298;51.252;6.802;2023-04-24T04:26:33;10.10;99.90
2577;DHT22;1298;51.252;6.802;2023-04-24T04:34:16;10.10;99.90
2577;DHT22;1298;51.252;6.802;2023-04-24T04:37:15;10.10;99.90
2577;DHT22;1298;51.252;6.802;2023-04-24T04:40:15;10.00;99.90
2577;DHT22;1298;51.252;6.802;2023-04-24T04:44:00;10.00;99.90
2577;DHT22;1298;51.252;6.802;2023-04-24T04:47:17;10.00;99.90
2577;DHT22;1298;51.252;6.802;2023-04-24T04:50:44;10.00;99.90
2577;DHT22;1298;51.252;6.802;2023-04-24T04:53:32;10.00;99.90
2577;DHT22;1298;51.252;6.802;2023-04-24T04:56:28;10.00;99.90
2577;DHT22;1298;51.252;6.802;2023-04-24T04:59:35;9.80;99.90
2577;DHT22;1298;51.252;6.802;2023-04-24T05:02:23;9.70;99.90
2577;DHT22;1298;51.252;6.802;2023-04-24T05:05:48;9.60;99.90
2577;DHT22;1298;51.252;6.802;2023-04-24T05:08:40;9.40;99.90
2577;DHT22;1298;51.252;6.802;2023-04-24T05:11:30;9.40;99.90
2577;DHT22;1298;51.252;6.802;2023-04-24T05:14:30;9.30;99.90
2577;DHT22;1298;51.252;6.802;2023-04-24T05:17:15;9.30;99.90
2577;DHT22;1298;51.252;6.802;2023-04-24T05:20:00;9.40;99.90
2577;DHT22;1298;51.252;6.802;2023-04-24T05:22:46;9.50;99.90
2577;DHT22;1298;51.252;6.802;2023-04-24T05:25:33;9.50;99.90
2577;DHT22;1298;51.252;6.802;2023-04-24T05:28:20;9.50;99.90
2577;DHT22;1298;51.252;6.802;2023-04-24T05:31:06;9.60;99.90
2577;DHT22;1298;51.252;6.802;2023-04-24T05:33:51;9.50;99.90
2577;DHT22;1298;51.252;6.802;2023-04-24T05:36:37;9.40;99.90
2577;DHT22;1298;51.252;6.802;2023-04-24T05:39:22;9.30;99.90
2577;DHT22;1298;51.252;6.802;2023-04-24T05:42:10;9.20;99.90
2577;DHT22;1298;51.252;6.802;2023-04-24T05:44:59;9.20;99.90
2577;DHT22;1298;51.252;6.802;2023-04-24T05:47:45;9.30;99.90
2577;DHT22;1298;51.252;6.802;2023-04-24T05:51:41;9.30;99.90
2577;DHT22;1298;51.252;6.802;2023-04-24T05:54:27;9.30;99.90
2577;DHT22;1298;51.252;6.802;2023-04-24T05:57:14;9.40;99.90
2577;DHT22;1298;51.252;6.802;2023-04-24T05:59:59;9.50;99.90
2577;DHT22;1298;51.252;6.802;2023-04-24T06:02:45;9.40;99.90
2577;DHT22;1298;51.252;6.802;2023-04-24T06:05:32;9.40;99.90
2577;DHT22;1298;51.252;6.802;2023-04-24T06:08:19;9.40;99.90
2577;DHT22;1298;51.252;6.802;2023-04-24T06:11:19;9.40;99.90
2577;DHT22;1298;51.252;6.802;2023-04-24T06:14:20;9.30;99.90
2577;DHT22;1298;51.252;6.802;2023-04-24T06:17:13;9.40;99.90
2577;DHT22;1298;51.252;6.802;2023-04-24T06:20:09;9.40;99.90
2577;DHT22;1298;51.252;6.802;2023-04-24T06:23:01;9.40;99.90
2577;DHT22;1298;51.252;6.802;2023-04-24T06:25:51;9.40;99.90
2577;DHT22;1298;51.252;6.802;2023-04-24T06:28:41;9.40;99.90
2577;DHT22;1298;51.252;6.802;2023-04-24T06:31:29;9.40;99.90
2577;DHT22;1298;51.252;6.802;2023-04-24T06:34:15;9.40;99.90
2577;DHT22;1298;51.252;6.802;2023-04-24T06:37:02;9.40;99.90
2577;DHT22;1298;51.252;6.802;2023-04-24T06:40:08;9.40;99.90
2577;DHT22;1298;51.252;6.802;2023-04-24T06:44:49;9.30;99.90
2577;DHT22;1298;51.252;6.802;2023-04-24T06:47:36;9.20;99.90
2577;DHT22;1298;51.252;6.802;2023-04-24T06:50:47;9.10;99.90
2577;DHT22;1298;51.252;6.802;2023-04-24T06:53:38;9.00;99.90
2577;DHT22;1298;51.252;6.802;2023-04-24T06:56:52;9.00;99.90
2577;DHT22;1298;51.252;6.802;2023-04-24T07:00:17;9.00;99.90
2577;DHT22;1298;51.252;6.802;2023-04-24T07:03:08;8.90;99.90
2577;DHT22;1298;51.252;6.802;2023-04-24T07:06:22;8.90;99.90
2577;DHT22;1298;51.252;6.802;2023-04-24T07:09:13;8.90;99.90
2577;DHT22;1298;51.252;6.802;2023-04-24T07:12:01;8.90;99.90
2577;DHT22;1298;51.252;6.802;2023-04-24T07:14:48;8.90;99.90
2577;DHT22;1298;51.252;6.802;2023-04-24T07:17:34;9.00;99.90
2577;DHT22;1298;51.252;6.802;2023-04-24T07:20:29;9.00;99.90
2577;DHT22;1298;51.252;6.802;2023-04-24T07:23:15;9.00;99.90
2577;DHT22;1298;51.252;6.802;2023-04-24T07:26:12;8.90;99.90
2577;DHT22;1298;51.252;6.802;2023-04-24T07:29:01;8.80;99.90
2577;DHT22;1298;51.252;6.802;2023-04-24T07:32:24;8.70;99.90
2577;DHT22;1298;51.252;6.802;2023-04-24T07:35:56;8.60;99.90
2577;DHT22;1298;51.252;6.802;2023-04-24T07:38:45;8.40;99.90
2577;DHT22;1298;51.252;6.802;2023-04-24T07:41:39;8.30;99.90
2577;DHT22;1298;51.252;6.802;2023-04-24T07:44:29;8.20;99.90
2577;DHT22;1298;51.252;6.802;2023-04-24T07:47:33;8.20;99.90
2577;DHT22;1298;51.252;6.802;2023-04-24T07:50:20;8.00;99.90
2577;DHT22;1298;51.252;6.802;2023-04-24T07:53:35;7.80;99.90
2577;DHT22;1298;51.252;6.802;2023-04-24T07:56:22;7.60;99.90
2577;DHT22;1298;51.252;6.802;2023-04-24T07:59:23;7.50;99.90
2577;DHT22;1298;51.252;6.802;2023-04-24T08:02:16;7.50;99.90
2577;DHT22;1298;51.252;6.802;2023-04-24T08:05:17;7.50;99.90
2577;DHT22;1298;51.252;6.802;2023-04-24T08:08:04;7.50;99.90
2577;DHT22;1298;51.252;6.802;2023-04-24T08:11:58;7.50;99.90
2577;DHT22;1298;51.252;6.802;2023-04-24T08:14:51;7.60;99.90
2577;DHT22;1298;51.252;6.802;2023-04-24T08:17:45;7.60;99.90
2577;DHT22;1298;51.252;6.802;2023-04-24T08:20:38;7.60;99.90
2577;DHT22;1298;51.252;6.802;2023-04-24T08:23:55;7.70;99.90
2577;DHT22;1298;51.252;6.802;2023-04-24T08:27:17;7.60;99.90
2577;DHT22;1298;51.252;6.802;2023-04-24T08:30:03;7.70;99.90
2577;DHT22;1298;51.252;6.802;2023-04-24T08:33:04;7.80;99.90
2577;DHT22;1298;51.252;6.802;2023-04-24T08:36:16;7.90;99.90
2577;DHT22;1298;51.252;6.802;2023-04-24T08:39:07;8.00;99.90
2577;DHT22;1298;51.252;6.802;2023-04-24T08:42:13;8.00;99.90
2577;DHT22;1298;51.252;6.802;2023-04-24T08:45:10;8.10;99.90
2577;DHT22;1298;51.252;6.802;2023-04-24T08:47:57;8.20;99.90
2577;DHT22;1298;51.252;6.802;2023-04-24T08:51:01;8.20;99.90
2577;DHT22;1298;51.252;6.802;2023-04-24T08:55:14;8.30;99.90
2577;DHT22;1298;51.252;6.802;2023-04-24T08:58:04;8.40;99.90
2577;DHT22;1298;51.252;6.802;2023-04-24T09:01:11;8.30;99.90
2577;DHT22;1298;51.252;6.802;2023-04-24T09:04:14;8.30;99.90
2577;DHT22;1298;51.252;6.802;2023-04-24T09:07:12;8.20;99.90
2577;DHT22;1298;51.252;6.802;2023-04-24T09:10:02;8.10;99.90
2577;DHT22;1298;51.252;6.802;2023-04-24T09:14:31;8.10;99.90
2577;DHT22;1298;51.252;6.802;2023-04-24T09:17:35;7.90;99.90
2577;DHT22;1298;51.252;6.802;2023-04-24T09:21:00;7.90;99.90
2577;DHT22;1298;51.252;6.802;2023-04-24T09:24:23;7.90;99.90
2577;DHT22;1298;51.252;6.802;2023-04-24T09:27:22;7.90;99.90
2577;DHT22;1298;51.252;6.802;2023-04-24T09:31:06;8.00;99.90
2577;DHT22;1298;51.252;6.802;2023-04-24T09:34:22;8.00;99.90
2577;DHT22;1298;51.252;6.802;2023-04-24T09:37:08;8.00;99.90
2577;DHT22;1298;51.252;6.802;2023-04-24T09:40:13;7.80;99.90
2577;DHT22;1298;51.252;6.802;2023-04-24T09:43:34;7.90;99.90
2577;DHT22;1298;51.252;6.802;2023-04-24T09:46:59;8.00;99.90
2577;DHT22;1298;51.252;6.802;2023-04-24T09:49:58;8.10;99.90
2577;DHT22;1298;51.252;6.802;2023-04-24T09:53:36;8.10;99.90
2577;DHT22;1298;51.252;6.802;2023-04-24T09:56:25;8.10;99.90
2577;DHT22;1298;51.252;6.802;2023-04-24T09:59:17;8.10;99.90
2577;DHT22;1298;51.252;6.802;2023-04-24T10:02:34;8.20;99.90
2577;DHT22;1298;51.252;6.802;2023-04-24T10:05:46;8.30;99.90
2577;DHT22;1298;51.252;6.802;2023-04-24T10:08:35;8.30;99.90
2577;DHT22;1298;51.252;6.802;2023-04-24T10:11:21;8.40;99.90
2577;DHT22;1298;51.252;6.802;2023-04-24T10:14:09;8.50;99.90
2577;DHT22;1298;51.252;6.802;2023-04-24T10:16:55;8.50;99.90
2577;DHT22;1298;51.252;6.802;2023-04-24T10:20:22;8.50;99.90
2577;DHT22;1298;51.252;6.802;2023-04-24T10:23:29;8.40;99.90
2577;DHT22;1298;51.252;6.802;2023-04-24T10:26:21;8.40;99.90
2577;DHT22;1298;51.252;6.802;2023-04-24T10:29:34;8.50;99.90
2577;DHT22;1298;51.252;6.802;2023-04-24T10:32:33;8.40;99.90
2577;DHT22;1298;51.252;6.802;2023-04-24T10:35:25;8.40;99.90
2577;DHT22;1298;51.252;6.802;2023-04-24T10:38:21;8.40;99.90
2577;DHT22;1298;51.252;6.802;2023-04-24T10:41:18;8.30;99.90
2577;DHT22;1298;51.252;6.802;2023-04-24T10:44:20;8.10;99.90
2577;DHT22;1298;51.252;6.802;2023-04-24T10:47:12;8.10;99.90
2577;DHT22;1298;51.252;6.802;2023-04-24T10:50:02;8.10;99.90
2577;DHT22;1298;51.252;6.802;2023-04-24T10:52:49;8.00;99.90
2577;DHT22;1298;51.252;6.802;2023-04-24T10:56:02;8.10;99.90
2577;DHT22;1298;51.252;6.802;2023-04-24T10:58:53;8.20;99.90
2577;DHT22;1298;51.252;6.802;2023-04-24T11:01:52;8.20;99.90
2577;DHT22;1298;51.252;6.802;2023-04-24T11:04:53;8.30;99.90
2577;DHT22;1298;51.252;6.802;2023-04-24T11:10:41;8.70;99.90
2577;DHT22;1298;51.252;6.802;2023-04-24T11:16:43;9.00;99.90
2577;DHT22;1298;51.252;6.802;2023-04-24T11:19:33;9.10;99.90
2577;DHT22;1298;51.252;6.802;2023-04-24T11:22:26;9.10;99.90
2577;DHT22;1298;51.252;6.802;2023-04-24T11:25:18;9.00;99.90
2577;DHT22;1298;51.252;6.802;2023-04-24T11:28:06;9.00;99.90
2577;DHT22;1298;51.252;6.802;2023-04-24T11:30:52;9.00;99.90
2577;DHT22;1298;51.252;6.802;2023-04-24T11:33:46;9.10;99.90
2577;DHT22;1298;51.252;6.802;2023-04-24T11:36:31;9.20;99.90
2577;DHT22;1298;51.252;6.802;2023-04-24T11:39:16;9.30;99.90
2577;DHT22;1298;51.252;6.802;2023-04-24T11:42:02;9.50;99.90
2577;DHT22;1298;51.252;6.802;2023-04-24T11:44:47;9.80;99.90
2577;DHT22;1298;51.252;6.802;2023-04-24T11:47:32;9.90;99.90
2577;DHT22;1298;51.252;6.802;2023-04-24T11:50:21;10.10;99.90
2577;DHT22;1298;51.252;6.802;2023-04-24T11:53:06;10.10;99.90
2577;DHT22;1298;51.252;6.802;2023-04-24T11:55:51;10.10;99.90
2577;DHT22;1298;51.252;6.802;2023-04-24T11:58:37;10.10;99.90
2577;DHT22;1298;51.252;6.802;2023-04-24T12:01:22;9.90;99.90
2577;DHT22;1298;51.252;6.802;2023-04-24T12:04:07;9.80;99.90
2577;DHT22;1298;51.252;6.802;2023-04-24T12:07:00;9.80;99.90
2577;DHT22;1298;51.252;6.802;2023-04-24T12:09:46;9.70;99.90
2577;DHT22;1298;51.252;6.802;2023-04-24T12:12:32;9.80;99.90
2577;DHT22;1298;51.252;6.802;2023-04-24T12:15:17;9.80;99.90
2577;DHT22;1298;51.252;6.802;2023-04-24T12:18:03;10.00;99.90
2577;DHT22;1298;51.252;6.802;2023-04-24T12:20:48;10.20;99.90
2577;DHT22;1298;51.252;6.802;2023-04-24T12:23:35;10.40;99.90
2577;DHT22;1298;51.252;6.802;2023-04-24T12:26:21;10.70;99.90
2577;DHT22;1298;51.252;6.802;2023-04-24T12:29:06;10.50;99.90
2577;DHT22;1298;51.252;6.802;2023-04-24T12:31:53;10.40;99.90
2577;DHT22;1298;51.252;6.802;2023-04-24T12:34:39;10.60;99.90
2577;DHT22;1298;51.252;6.802;2023-04-24T12:37:24;10.80;99.90
2577;DHT22;1298;51.252;6.802;2023-04-24T12:40:13;10.80;99.90
2577;DHT22;1298;51.252;6.802;2023-04-24T12:42:59;10.80;99.90
2577;DHT22;1298;51.252;6.802;2023-04-24T12:45:47;11.10;99.90
2577;DHT22;1298;51.252;6.802;2023-04-24T12:48:35;11.20;99.90
2577;DHT22;1298;51.252;6.802;2023-04-24T12:51:25;11.30;99.90
2577;DHT22;1298;51.252;6.802;2023-04-24T12:54:11;11.40;99.90
2577;DHT22;1298;51.252;6.802;2023-04-24T12:56:58;11.40;99.90
2577;DHT22;1298;51.252;6.802;2023-04-24T12:59:45;11.40;99.90
2577;DHT22;1298;51.252;6.802;2023-04-24T13:02:42;11.50;99.90
2577;DHT22;1298;51.252;6.802;2023-04-24T13:05:30;11.60;99.90
2577;DHT22;1298;51.252;6.802;2023-04-24T13:08:15;11.60;99.90
2577;DHT22;1298;51.252;6.802;2023-04-24T13:11:01;11.70;99.90
2577;DHT22;1298;51.252;6.802;2023-04-24T13:13:47;12.00;99.90
2577;DHT22;1298;51.252;6.802;2023-04-24T13:16:33;12.00;99.90
2577;DHT22;1298;51.252;6.802;2023-04-24T13:19:18;11.90;99.90
2577;DHT22;1298;51.252;6.802;2023-04-24T13:22:03;11.70;99.90
2577;DHT22;1298;51.252;6.802;2023-04-24T13:24:49;11.60;99.90
2577;DHT22;1298;51.252;6.802;2023-04-24T13:27:34;11.60;99.90
2577;DHT22;1298;51.252;6.802;2023-04-24T13:30:20;11.90;99.90
2577;DHT22;1298;51.252;6.802;2023-04-24T13:33:05;12.00;99.90
2577;DHT22;1298;51.252;6.802;2023-04-24T13:35:51;12.20;99.90
2577;DHT22;1298;51.252;6.802;2023-04-24T13:38:36;12.10;99.90
2577;DHT22;1298;51.252;6.802;2023-04-24T13:41:21;12.40;99.90
2577;DHT22;1298;51.252;6.802;2023-04-24T13:44:12;12.20;99.90
2577;DHT22;1298;51.252;6.802;2023-04-24T13:47:02;12.00;99.90
2577;DHT22;1298;51.252;6.802;2023-04-24T13:49:50;11.70;99.90
2577;DHT22;1298;51.252;6.802;2023-04-24T13:52:38;11.60;99.90
2577;DHT22;1298;51.252;6.802;2023-04-24T13:55:25;11.40;99.90
2577;DHT22;1298;51.252;6.802;2023-04-24T13:58:15;11.20;99.90
2577;DHT22;1298;51.252;6.802;2023-04-24T14:01:00;11.20;99.90
2577;DHT22;1298;51.252;6.802;2023-04-24T14:03:47;11.30;99.90
2577;DHT22;1298;51.252;6.802;2023-04-24T14:06:34;11.30;99.90
2577;DHT22;1298;51.252;6.802;2023-04-24T14:09:19;11.40;99.90
2577;DHT22;1298;51.252;6.802;2023-04-24T14:12:04;11.40;99.90
2577;DHT22;1298;51.252;6.802;2023-04-24T14:14:51;11.50;99.90
2577;DHT22;1298;51.252;6.802;2023-04-24T14:17:36;11.60;99.90
2577;DHT22;1298;51.252;6.802;2023-04-24T14:20:22;11.50;99.90
2577;DHT22;1298;51.252;6.802;2023-04-24T14:23:08;11.60;99.90
2577;DHT22;1298;51.252;6.802;2023-04-24T14:25:53;11.80;99.90
2577;DHT22;1298;51.252;6.802;2023-04-24T14:28:38;11.70;99.90
2577;DHT22;1298;51.252;6.802;2023-04-24T14:31:23;11.80;99.90
2577;DHT22;1298;51.252;6.802;2023-04-24T14:34:08;12.00;99.90
2577;DHT22;1298;51.252;6.802;2023-04-24T14:36:55;12.00;99.90
2577;DHT22;1298;51.252;6.802;2023-04-24T14:39:40;12.00;99.90
2577;DHT22;1298;51.252;6.802;2023-04-24T14:42:25;11.90;99.90
2577;DHT22;1298;51.252;6.802;2023-04-24T14:45:12;12.10;99.90
2577;DHT22;1298;51.252;6.802;2023-04-24T14:47:57;12.00;99.90
2577;DHT22;1298;51.252;6.802;2023-04-24T14:50:42;12.10;99.90
2577;DHT22;1298;51.252;6.802;2023-04-24T14:53:29;12.40;99.90
2577;DHT22;1298;51.252;6.802;2023-04-24T14:56:14;12.40;99.90
2577;DHT22;1298;51.252;6.802;2023-04-24T14:58:59;12.50;99.90
2577;DHT22;1298;51.252;6.802;2023-04-24T15:01:45;12.30;99.90
2577;DHT22;1298;51.252;6.802;2023-04-24T15:04:30;12.30;99.90
2577;DHT22;1298;51.252;6.802;2023-04-24T15:07:16;12.30;99.90
2577;DHT22;1298;51.252;6.802;2023-04-24T15:10:02;12.10;99.90
2577;DHT22;1298;51.252;6.802;2023-04-24T15:12:48;12.10;99.90
2577;DHT22;1298;51.252;6.802;2023-04-24T15:15:33;12.90;99.90
2577;DHT22;1298;51.252;6.802;2023-04-24T15:18:18;13.70;99.90
2577;DHT22;1298;51.252;6.802;2023-04-24T15:21:04;13.60;99.90
2577;DHT22;1298;51.252;6.802;2023-04-24T15:23:49;13.20;99.90
2577;DHT22;1298;51.252;6.802;2023-04-24T15:26:36;13.20;99.90
2577;DHT22;1298;51.252;6.802;2023-04-24T15:29:21;12.90;99.90
2577;DHT22;1298;51.252;6.802;2023-04-24T15:32:07;13.10;99.90
2577;DHT22;1298;51.252;6.802;2023-04-24T15:34:52;13.40;99.90
2577;DHT22;1298;51.252;6.802;2023-04-24T15:37:37;13.60;99.90
2577;DHT22;1298;51.252;6.802;2023-04-24T15:40:22;13.40;99.90
2577;DHT22;1298;51.252;6.802;2023-04-24T15:43:09;13.10;99.90
2577;DHT22;1298;51.252;6.802;2023-04-24T15:45:54;13.00;99.90
2577;DHT22;1298;51.252;6.802;2023-04-24T15:48:41;12.70;99.90
2577;DHT22;1298;51.252;6.802;2023-04-24T15:51:27;12.50;99.90
2577;DHT22;1298;51.252;6.802;2023-04-24T15:54:12;13.00;99.90
2577;DHT22;1298;51.252;6.802;2023-04-24T15:56:57;13.80;99.90
2577;DHT22;1298;51.252;6.802;2023-04-24T15:59:44;13.70;99.90
2577;DHT22;1298;51.252;6.802;2023-04-24T16:02:29;13.40;99.90
2577;DHT22;1298;51.252;6.802;2023-04-24T16:05:15;13.50;99.90
2577;DHT22;1298;51.252;6.802;2023-04-24T16:08:00;13.50;99.90
2577;DHT22;1298;51.252;6.802;2023-04-24T16:10:45;13.50;99.90
2577;DHT22;1298;51.252;6.802;2023-04-24T16:13:31;12.60;99.90
2577;DHT22;1298;51.252;6.802;2023-04-24T16:16:18;12.70;99.90
2577;DHT22;1298;51.252;6.802;2023-04-24T16:19:04;12.50;99.90
2577;DHT22;1298;51.252;6.802;2023-04-24T16:21:49;12.80;99.90
2577;DHT22;1298;51.252;6.802;2023-04-24T16:24:37;13.80;99.90
2577;DHT22;1298;51.252;6.802;2023-04-24T16:27:35;14.60;99.90
2577;DHT22;1298;51.252;6.802;2023-04-24T16:30:21;15.20;99.90
2577;DHT22;1298;51.252;6.802;2023-04-24T16:33:07;15.80;99.90
2577;DHT22;1298;51.252;6.802;2023-04-24T16:35:53;16.00;99.90
2577;DHT22;1298;51.252;6.802;2023-04-24T16:38:39;15.90;99.90
2577;DHT22;1298;51.252;6.802;2023-04-24T16:41:25;15.90;99.90
2577;DHT22;1298;51.252;6.802;2023-04-24T16:44:10;15.70;99.90
2577;DHT22;1298;51.252;6.802;2023-04-24T16:46:56;15.30;99.90
2577;DHT22;1298;51.252;6.802;2023-04-24T16:49:43;14.20;99.90
2577;DHT22;1298;51.252;6.802;2023-04-24T16:52:28;13.40;99.90
2577;DHT22;1298;51.252;6.802;2023-04-24T16:55:14;13.90;99.90
2577;DHT22;1298;51.252;6.802;2023-04-24T16:57:59;14.10;99.90
2577;DHT22;1298;51.252;6.802;2023-04-24T17:00:45;14.60;99.90
2577;DHT22;1298;51.252;6.802;2023-04-24T17:03:31;14.80;99.90
2577;DHT22;1298;51.252;6.802;2023-04-24T17:06:17;14.70;99.90
2577;DHT22;1298;51.252;6.802;2023-04-24T17:09:03;14.50;99.90
2577;DHT22;1298;51.252;6.802;2023-04-24T17:11:49;14.50;99.90
2577;DHT22;1298;51.252;6.802;2023-04-24T17:14:34;14.50;99.90
2577;DHT22;1298;51.252;6.802;2023-04-24T17:17:19;14.70;99.90
2577;DHT22;1298;51.252;6.802;2023-04-24T17:20:06;14.60;99.90
2577;DHT22;1298;51.252;6.802;2023-04-24T17:22:53;14.90;99.90
2577;DHT22;1298;51.252;6.802;2023-04-24T17:25:40;14.70;99.90
2577;DHT22;1298;51.252;6.802;2023-04-24T17:28:27;14.90;99.90
2577;DHT22;1298;51.252;6.802;2023-04-24T17:31:13;14.90;99.90
2577;DHT22;1298;51.252;6.802;2023-04-24T17:33:58;14.90;99.90
2577;DHT22;1298;51.252;6.802;2023-04-24T17:36:43;14.60;99.90
2577;DHT22;1298;51.252;6.802;2023-04-24T17:39:30;14.20;99.90
2577;DHT22;1298;51.252;6.802;2023-04-24T17:42:15;14.40;99.90
2577;DHT22;1298;51.252;6.802;2023-04-24T17:45:00;14.60;99.90
2577;DHT22;1298;51.252;6.802;2023-04-24T17:47:45;14.30;99.90
2577;DHT22;1298;51.252;6.802;2023-04-24T17:50:30;13.70;99.90
2577;DHT22;1298;51.252;6.802;2023-04-24T17:53:15;13.30;99.90
2577;DHT22;1298;51.252;6.802;2023-04-24T17:56:03;13.30;99.90
2577;DHT22;1298;51.252;6.802;2023-04-24T17:58:54;12.70;99.90
2577;DHT22;1298;51.252;6.802;2023-04-24T18:01:40;12.10;99.90
2577;DHT22;1298;51.252;6.802;2023-04-24T18:04:26;11.60;99.90
2577;DHT22;1298;51.252;6.802;2023-04-24T18:07:14;11.20;99.90
2577;DHT22;1298;51.252;6.802;2023-04-24T18:10:00;10.90;99.90
2577;DHT22;1298;51.252;6.802;2023-04-24T18:12:46;10.70;99.90
2577;DHT22;1298;51.252;6.802;2023-04-24T18:15:32;10.50;99.90
2577;DHT22;1298;51.252;6.802;2023-04-24T18:18:18;10.40;99.90
2577;DHT22;1298;51.252;6.802;2023-04-24T18:21:03;10.30;99.90
2577;DHT22;1298;51.252;6.802;2023-04-24T18:23:48;10.30;99.90
2577;DHT22;1298;51.252;6.802;2023-04-24T18:26:34;10.20;99.90
2577;DHT22;1298;51.252;6.802;2023-04-24T18:29:20;10.00;99.90
2577;DHT22;1298;51.252;6.802;2023-04-24T18:32:05;10.00;99.90
2577;DHT22;1298;51.252;6.802;2023-04-24T18:34:50;10.00;99.90
2577;DHT22;1298;51.252;6.802;2023-04-24T18:37:36;10.00;99.90
2577;DHT22;1298;51.252;6.802;2023-04-24T18:40:22;10.00;99.90
2577;DHT22;1298;51.252;6.802;2023-04-24T18:43:07;10.00;99.90
2577;DHT22;1298;51.252;6.802;2023-04-24T18:45:54;9.90;99.90
2577;DHT22;1298;51.252;6.802;2023-04-24T18:48:40;9.90;99.90
2577;DHT22;1298;51.252;6.802;2023-04-24T18:51:25;9.90;99.90
2577;DHT22;1298;51.252;6.802;2023-04-24T18:54:10;9.80;99.90
2577;DHT22;1298;51.252;6.802;2023-04-24T18:56:55;9.80;99.90
2577;DHT22;1298;51.252;6.802;2023-04-24T18:59:40;9.80;99.90
2577;DHT22;1298;51.252;6.802;2023-04-24T19:02:27;9.80;99.90
2577;DHT22;1298;51.252;6.802;2023-04-24T19:05:13;9.80;99.90
2577;DHT22;1298;51.252;6.802;2023-04-24T19:07:58;9.80;99.90
2577;DHT22;1298;51.252;6.802;2023-04-24T19:10:43;9.70;99.90
2577;DHT22;1298;51.252;6.802;2023-04-24T19:13:29;9.80;99.90